Hlavní strana
METAR-TAF:

METAR-TAF

Letiště :

Gastonia Municipal Airport

Gastonia, Severní Karolína, Spojené státy americké

zeměpisná šířka: 35-11-48N, zeměpisná délka: 081-09-21W, výška: 243 m

Aktuální stav počasí

Zpráva byla vytvořena před 23 minutami, v 01:23 UTC
Severovýchodní vítr 10 kt
Teplota 21°C
Vlhkost vzduchu 73%
Tlak 1008 hPa
Viditelnost: 12.9 km
Oblačno až skoro zataženo ve výšce 8000 ft
Oblačno až skoro zataženo ve výšce 9500 ft
Zataženo ve výšce 11000 ft
slabý déšť

METAR: KAKH 090123Z AUTO 05010KT 8SM -RA BKN080 BKN095 OVC110 21/16 A2976 RMK AO2 LTG DSNT E AND SE AND W TSE17 P0004 T02060156

Čas: 21:46 (01:46 UTC)


TAF: chybějící

Stav a předpovědi počasí z více než 4 000 letišť (zprávy METAR a TAF).

Červené a žluté tečky na mapě představují dostupné meteorologické stanice.

Když kurzor umístíte na tečku, zobrazí se název stanice.

Pak kliknutím zobrazíte stav a předpověď počasí.

Chcete-li změnit mapu, kliknutím na zelené tlačítko se znaménkem +mapu přiblížíte, kliknutím na zelené tlačítko se znaménkem – mapu oddálíte a kliknutím na zelené šipky přejdete na sousední mapy.


METAR-TAF: